createdAt,value
2023-05-04T00:02:23.872Z,6.43
2023-05-04T00:04:54.763Z,6.03
2023-05-04T00:07:21.930Z,6.57
2023-05-04T00:09:50.242Z,6.65
2023-05-04T00:12:18.269Z,5.90
2023-05-04T00:14:45.329Z,7.37
2023-05-04T00:17:12.707Z,6.15
2023-05-04T00:19:42.263Z,6.05
2023-05-04T00:22:09.697Z,5.87
2023-05-04T00:24:36.863Z,5.43
2023-05-04T00:27:04.483Z,6.45
2023-05-04T00:29:32.245Z,6.53
2023-05-04T00:31:59.412Z,6.28
2023-05-04T00:34:26.887Z,5.62
2023-05-04T00:36:54.034Z,6.28
2023-05-04T00:39:21.159Z,7.10
2023-05-04T00:41:48.653Z,6.62
2023-05-04T00:44:15.756Z,6.45
2023-05-04T00:46:43.037Z,6.68
2023-05-04T00:49:11.358Z,5.90
2023-05-04T00:51:39.423Z,6.55
2023-05-04T00:54:06.630Z,6.43
2023-05-04T00:56:39.085Z,5.62
2023-05-04T00:59:06.362Z,5.97
2023-05-04T01:01:34.438Z,6.18
2023-05-04T01:04:02.040Z,5.37
2023-05-04T01:06:48.831Z,5.60
2023-05-04T01:09:28.509Z,6.07
2023-05-04T01:12:25.797Z,5.68
2023-05-04T01:14:56.364Z,5.47
2023-05-04T01:17:23.450Z,5.97
2023-05-04T01:19:53.894Z,5.68
2023-05-04T01:22:21.998Z,5.72
2023-05-04T01:24:50.618Z,6.05
2023-05-04T01:27:31.175Z,5.40
2023-05-04T01:30:09.270Z,6.43
2023-05-04T01:32:37.490Z,5.45
2023-05-04T01:35:05.449Z,6.20
2023-05-04T01:37:32.524Z,5.53
2023-05-04T01:39:59.678Z,5.75
2023-05-04T01:42:27.083Z,5.90
2023-05-04T01:44:54.196Z,5.85
2023-05-04T01:47:21.277Z,6.10
2023-05-04T01:49:49.659Z,6.10
2023-05-04T01:52:16.794Z,5.35
2023-05-04T01:54:44.553Z,5.85
2023-05-04T01:57:12.153Z,5.82
2023-05-04T01:59:39.279Z,4.97
2023-05-04T02:02:06.609Z,5.53
2023-05-04T02:04:34.094Z,5.80
2023-05-04T02:07:01.394Z,6.25
2023-05-04T02:09:29.407Z,6.10
2023-05-04T02:11:56.864Z,5.85
2023-05-04T02:14:24.479Z,5.37
2023-05-04T02:16:51.946Z,5.53
2023-05-04T02:19:19.373Z,6.60
2023-05-04T02:21:47.329Z,6.22
2023-05-04T02:24:14.511Z,6.50
2023-05-04T02:26:41.998Z,6.28
2023-05-04T02:29:09.120Z,7.43
2023-05-04T02:31:36.397Z,6.65
2023-05-04T02:34:03.754Z,6.78
2023-05-04T02:36:31.497Z,6.62
2023-05-04T02:39:00.481Z,6.95
2023-05-04T02:41:27.637Z,7.07
2023-05-04T02:43:54.685Z,6.55
2023-05-04T02:46:22.148Z,6.57
2023-05-04T02:48:49.266Z,6.40
2023-05-04T02:51:18.319Z,8.20
2023-05-04T02:53:45.764Z,6.93
2023-05-04T02:56:12.902Z,7.65
2023-05-04T02:58:39.980Z,6.95
2023-05-04T03:01:07.446Z,7.43
2023-05-04T03:03:34.502Z,7.57
2023-05-04T03:06:01.680Z,7.43
2023-05-04T03:08:30.197Z,7.60
2023-05-04T03:10:57.309Z,9.02
2023-05-04T03:13:24.383Z,8.13
2023-05-04T03:15:51.828Z,8.73
2023-05-04T03:18:18.988Z,8.02
2023-05-04T03:20:47.325Z,7.65
2023-05-04T03:23:16.368Z,8.05
2023-05-04T03:25:43.510Z,7.85
2023-05-04T03:28:10.616Z,7.80
2023-05-04T03:30:38.285Z,8.55
2023-05-04T03:33:05.384Z,8.32
2023-05-04T03:35:32.488Z,8.40
2023-05-04T03:38:01.806Z,7.85
2023-05-04T03:40:28.923Z,8.60
2023-05-04T03:42:56.065Z,8.18
2023-05-04T03:45:24.074Z,8.23
2023-05-04T03:47:51.368Z,9.27
2023-05-04T03:50:21.360Z,8.50
2023-05-04T03:52:49.498Z,9.65
2023-05-04T03:55:17.197Z,9.80
2023-05-04T03:57:47.809Z,8.43
2023-05-04T04:00:15.847Z,9.68
2023-05-04T04:02:42.975Z,9.55
2023-05-04T04:05:14.696Z,10.07
2023-05-04T04:07:42.118Z,9.02
2023-05-04T04:10:10.052Z,9.05
2023-05-04T04:12:37.605Z,8.75
2023-05-04T04:15:05.224Z,9.13
2023-05-04T04:17:32.310Z,8.73
2023-05-04T04:19:59.766Z,8.45
2023-05-04T04:22:27.271Z,10.10
2023-05-04T04:24:54.270Z,8.93
2023-05-04T04:27:21.687Z,9.93
2023-05-04T04:29:48.761Z,8.70
2023-05-04T04:32:17.714Z,8.82
2023-05-04T04:34:45.086Z,9.35
2023-05-04T04:37:12.591Z,7.70
2023-05-04T04:39:40.506Z,8.40
2023-05-04T04:42:07.890Z,7.47
2023-05-04T04:44:35.161Z,8.00
2023-05-04T04:47:06.678Z,7.40
2023-05-04T04:49:34.970Z,7.87
2023-05-04T04:52:02.841Z,7.22
2023-05-04T04:54:30.208Z,7.28
2023-05-04T04:56:57.544Z,7.50
2023-05-04T04:59:24.892Z,7.72
2023-05-04T05:01:52.219Z,6.40
2023-05-04T05:04:19.961Z,5.75
2023-05-04T05:06:47.781Z,6.25
2023-05-04T05:09:14.861Z,6.40
2023-05-04T05:11:42.270Z,6.10
2023-05-04T05:14:09.349Z,6.00
2023-05-04T05:16:36.523Z,7.68
2023-05-04T05:19:03.941Z,7.25
2023-05-04T05:21:30.953Z,6.15
2023-05-04T05:23:57.954Z,4.65
2023-05-04T05:26:25.378Z,6.07
2023-05-04T05:28:52.487Z,4.05
2023-05-04T05:31:19.585Z,3.83
2023-05-04T05:33:46.974Z,4.40
2023-05-04T05:36:14.584Z,4.62
2023-05-04T05:38:41.687Z,4.22
2023-05-04T05:41:09.884Z,4.10
2023-05-04T05:43:38.680Z,4.62
2023-05-04T05:46:07.213Z,3.75
2023-05-04T05:48:34.723Z,3.75
2023-05-04T05:51:01.955Z,3.37
2023-05-04T05:53:29.043Z,3.33
2023-05-04T05:55:56.371Z,3.80
2023-05-04T05:58:23.564Z,2.62
2023-05-04T06:00:50.720Z,2.53
2023-05-04T06:03:18.316Z,3.00
2023-05-04T06:05:45.446Z,2.90
2023-05-04T06:08:12.570Z,2.58
2023-05-04T06:10:40.133Z,3.30
2023-05-04T06:13:07.377Z,2.10
2023-05-04T06:15:34.985Z,2.50
2023-05-04T06:18:02.882Z,2.22
2023-05-04T06:20:30.017Z,2.67
2023-05-04T06:22:57.357Z,3.47
2023-05-04T06:25:24.735Z,2.35
2023-05-04T06:27:51.877Z,2.78
2023-05-04T06:30:19.096Z,2.17
2023-05-04T06:32:47.085Z,1.83
2023-05-04T06:35:14.305Z,1.58
2023-05-04T06:37:41.722Z,1.67
2023-05-04T06:40:09.716Z,1.58
2023-05-04T06:42:37.025Z,6.65
2023-05-04T06:45:04.680Z,1.67
2023-05-04T06:47:35.491Z,2.33
2023-05-04T06:50:07.146Z,1.95
2023-05-04T06:52:34.584Z,1.33
2023-05-04T06:55:01.800Z,1.48
2023-05-04T06:57:29.844Z,1.98
2023-05-04T06:59:57.287Z,1.73
2023-05-04T07:02:24.544Z,1.60
2023-05-04T07:04:52.845Z,2.30
2023-05-04T07:07:20.254Z,2.00
2023-05-04T07:09:48.212Z,1.95
2023-05-04T07:12:15.334Z,1.70
2023-05-04T07:14:42.613Z,2.03
2023-05-04T07:17:10.391Z,2.22
2023-05-04T07:19:37.551Z,1.98
2023-05-04T07:22:04.973Z,1.92
2023-05-04T07:24:32.086Z,1.87
2023-05-04T07:26:59.706Z,1.73
2023-05-04T07:29:27.099Z,2.55
2023-05-04T07:31:54.303Z,2.10
2023-05-04T07:34:25.304Z,1.67
2023-05-04T07:37:04.889Z,1.83
2023-05-04T07:39:35.107Z,2.00
2023-05-04T07:42:06.038Z,2.15
2023-05-04T07:44:33.144Z,1.83
2023-05-04T07:47:01.873Z,1.98
2023-05-04T07:49:29.410Z,2.55
2023-05-04T07:51:56.512Z,2.15
2023-05-04T07:54:23.636Z,2.20
2023-05-04T07:56:51.233Z,2.42
2023-05-04T07:59:18.866Z,2.17
2023-05-04T08:01:47.256Z,2.03
2023-05-04T08:04:14.800Z,2.60
2023-05-04T08:06:41.996Z,2.58
2023-05-04T08:09:09.414Z,2.10
2023-05-04T08:11:38.015Z,2.33
2023-05-04T08:14:05.566Z,2.20
2023-05-04T08:16:32.837Z,2.50
2023-05-04T08:19:01.388Z,2.20
2023-05-04T08:21:28.890Z,2.35
2023-05-04T08:23:56.229Z,2.35
2023-05-04T08:26:24.400Z,2.15
2023-05-04T08:28:51.459Z,2.28
2023-05-04T08:31:18.796Z,3.22
2023-05-04T08:33:46.295Z,3.00
2023-05-04T08:36:13.513Z,3.30
2023-05-04T08:38:40.612Z,10.00
2023-05-04T08:41:09.055Z,3.47
2023-05-04T08:43:37.155Z,2.50
2023-05-04T08:46:04.937Z,2.87
2023-05-04T08:48:35.563Z,2.05
2023-05-04T08:51:04.441Z,1.95
2023-05-04T08:53:34.170Z,2.08
2023-05-04T08:56:04.198Z,2.78
2023-05-04T08:58:31.978Z,2.30
2023-05-04T09:01:01.289Z,2.33
2023-05-04T09:03:30.231Z,2.97
2023-05-04T09:05:58.909Z,2.12
2023-05-04T09:08:26.829Z,3.30
2023-05-04T09:10:54.203Z,8.07
2023-05-04T09:13:21.538Z,6.10
2023-05-04T09:15:58.712Z,3.50
2023-05-04T09:18:40.007Z,5.43
2023-05-04T09:21:08.133Z,3.92
2023-05-04T09:24:04.842Z,3.35
2023-05-04T09:26:33.368Z,4.22
2023-05-04T09:29:14.021Z,3.28
2023-05-04T09:31:44.752Z,5.85
2023-05-04T09:34:12.168Z,4.20
2023-05-04T09:36:39.251Z,3.62
2023-05-04T09:39:13.379Z,3.05
2023-05-04T09:41:41.753Z,3.35
2023-05-04T09:44:18.992Z,2.95
2023-05-04T09:46:57.427Z,3.65
2023-05-04T09:49:39.039Z,3.40
2023-05-04T09:52:07.006Z,4.37
2023-05-04T09:54:36.268Z,4.47
2023-05-04T09:57:16.548Z,4.53
2023-05-04T09:59:43.894Z,3.53
2023-05-04T10:02:22.091Z,3.67
2023-05-04T10:04:52.186Z,3.90
2023-05-04T10:07:20.752Z,3.33
2023-05-04T10:09:48.909Z,3.35
2023-05-04T10:12:16.408Z,3.30
2023-05-04T10:14:46.912Z,3.53
2023-05-04T10:17:34.257Z,3.72
2023-05-04T10:20:33.331Z,4.72
2023-05-04T10:23:12.206Z,4.50
2023-05-04T10:25:48.826Z,4.45
2023-05-04T10:28:34.629Z,4.62
2023-05-04T10:31:02.332Z,4.78
2023-05-04T10:33:43.256Z,4.37
2023-05-04T10:36:11.632Z,4.75
2023-05-04T10:38:40.421Z,5.25
2023-05-04T10:41:21.479Z,5.15
2023-05-04T10:43:50.707Z,5.30
2023-05-04T10:46:22.573Z,5.22
2023-05-04T10:48:51.060Z,4.95
2023-05-04T10:51:19.792Z,11.43
2023-05-04T10:53:47.978Z,6.05
2023-05-04T10:56:28.438Z,5.53
2023-05-04T10:58:55.704Z,6.03
2023-05-04T11:01:23.239Z,5.20
2023-05-04T11:03:51.858Z,5.20
2023-05-04T11:06:24.565Z,5.28
2023-05-04T11:09:02.631Z,4.70
2023-05-04T11:11:29.820Z,4.72
2023-05-04T11:13:57.317Z,5.03
2023-05-04T11:16:25.879Z,4.50
2023-05-04T11:19:07.213Z,9.20
2023-05-04T11:21:34.548Z,4.47
2023-05-04T11:24:02.748Z,4.30
2023-05-04T11:26:29.779Z,8.57
2023-05-04T11:28:57.219Z,10.98
2023-05-04T11:31:25.762Z,18.10
2023-05-04T11:33:55.257Z,6.93
2023-05-04T11:36:23.199Z,12.98
2023-05-04T11:38:51.030Z,6.25
2023-05-04T11:41:18.084Z,8.95
2023-05-04T11:43:46.692Z,6.62
2023-05-04T11:46:14.820Z,23.25
2023-05-04T11:48:42.307Z,6.35
2023-05-04T11:51:09.907Z,8.32
2023-05-04T11:53:38.655Z,10.63
2023-05-04T11:56:08.923Z,7.05
2023-05-04T11:58:36.973Z,11.23
2023-05-04T12:01:04.661Z,7.93
2023-05-04T12:03:51.197Z,12.07
2023-05-04T12:06:30.292Z,8.50
2023-05-04T12:09:06.290Z,6.40
2023-05-04T12:11:34.778Z,6.50
2023-05-04T12:14:10.221Z,6.37
2023-05-04T12:16:38.747Z,6.55
2023-05-04T12:19:08.147Z,6.80
2023-05-04T12:21:36.026Z,6.45
2023-05-04T12:24:03.983Z,6.50
2023-05-04T12:26:31.430Z,5.80
2023-05-04T12:28:58.860Z,5.85
2023-05-04T12:31:25.989Z,6.47
2023-05-04T12:33:53.308Z,6.68
2023-05-04T12:36:21.490Z,6.40
2023-05-04T12:38:48.677Z,7.12
2023-05-04T12:41:16.042Z,6.45
2023-05-04T12:43:43.102Z,6.45
2023-05-04T12:46:10.609Z,7.25
2023-05-04T12:48:38.056Z,6.43
2023-05-04T12:51:05.200Z,6.18
2023-05-04T12:53:32.506Z,5.90
2023-05-04T12:56:01.132Z,6.35
2023-05-04T12:58:28.265Z,5.40
2023-05-04T13:00:56.634Z,5.32
2023-05-04T13:03:24.135Z,5.37
2023-05-04T13:05:51.411Z,5.30
2023-05-04T13:08:19.743Z,5.47
2023-05-04T13:10:47.261Z,6.00
2023-05-04T13:13:18.189Z,5.85
2023-05-04T13:15:45.441Z,6.65
2023-05-04T13:18:13.048Z,6.10
2023-05-04T13:20:40.840Z,7.30
2023-05-04T13:23:08.027Z,5.90
2023-05-04T13:25:35.624Z,5.78
2023-05-04T13:28:03.478Z,6.75
2023-05-04T13:30:30.652Z,5.03
2023-05-04T13:32:58.069Z,6.00
2023-05-04T13:35:25.292Z,5.18
2023-05-04T13:37:56.062Z,6.68
2023-05-04T13:40:23.646Z,6.45
2023-05-04T13:42:51.545Z,5.93
2023-05-04T13:45:19.730Z,6.45
2023-05-04T13:47:47.060Z,5.75
2023-05-04T13:50:14.280Z,5.82
2023-05-04T13:52:41.340Z,6.22
2023-05-04T13:55:09.270Z,6.35
2023-05-04T13:57:36.496Z,5.50
2023-05-04T14:00:08.140Z,5.65
2023-05-04T14:05:06.067Z,6.28
2023-05-04T14:07:34.553Z,6.50
2023-05-04T14:10:01.820Z,6.68
2023-05-04T14:12:29.362Z,6.50
2023-05-04T14:14:57.479Z,5.12
2023-05-04T14:17:25.173Z,6.82
2023-05-04T14:19:52.604Z,6.28
2023-05-04T14:22:19.733Z,6.22
2023-05-04T14:24:46.812Z,5.72
2023-05-04T14:27:14.185Z,5.93
2023-05-04T14:29:41.325Z,5.75
2023-05-04T14:32:08.453Z,6.05
2023-05-04T14:34:36.547Z,5.32
2023-05-04T14:37:04.116Z,5.60
2023-05-04T14:39:31.203Z,6.55
2023-05-04T14:41:58.642Z,5.80
2023-05-04T14:44:27.872Z,5.53
2023-05-04T14:46:55.594Z,6.50
2023-05-04T14:49:35.895Z,5.55
2023-05-04T14:52:04.955Z,6.03
2023-05-04T14:54:32.600Z,6.28
2023-05-04T14:56:59.896Z,7.05
2023-05-04T14:59:27.105Z,6.30
2023-05-04T15:01:55.396Z,6.03
2023-05-04T15:04:22.948Z,5.60
2023-05-04T15:06:50.298Z,5.95
2023-05-04T15:09:17.759Z,6.18
2023-05-04T15:11:44.759Z,5.12
2023-05-04T15:14:11.973Z,5.55
2023-05-04T15:16:39.392Z,6.20
2023-05-04T15:19:07.120Z,5.07
2023-05-04T15:21:34.266Z,5.75
2023-05-04T15:24:02.088Z,5.40
2023-05-04T15:26:30.944Z,5.00
2023-05-04T15:28:58.212Z,5.62
2023-05-04T15:31:25.586Z,5.05
2023-05-04T15:33:53.870Z,5.97
2023-05-04T15:36:21.346Z,5.15
2023-05-04T15:38:48.824Z,5.45
2023-05-04T15:41:15.880Z,5.10
2023-05-04T15:43:42.973Z,5.30
2023-05-04T15:46:10.460Z,5.07
2023-05-04T15:48:37.608Z,5.32
2023-05-04T15:51:11.202Z,5.32
2023-05-04T15:53:39.128Z,5.35
2023-05-04T15:56:06.477Z,4.95
2023-05-04T15:58:33.729Z,4.82
2023-05-04T16:01:03.958Z,5.53
2023-05-04T16:03:31.966Z,5.60
2023-05-04T16:05:59.235Z,6.43
2023-05-04T16:08:26.391Z,5.60
2023-05-04T16:10:53.958Z,5.57
2023-05-04T16:13:21.206Z,5.32
2023-05-04T16:15:51.798Z,5.65
2023-05-04T16:18:19.758Z,4.93
2023-05-04T16:20:47.668Z,5.25
2023-05-04T16:23:17.267Z,4.62
2023-05-04T16:25:44.720Z,4.85
2023-05-04T16:28:12.259Z,5.00
2023-05-04T16:30:39.432Z,5.60
2023-05-04T16:33:07.219Z,5.43
2023-05-04T16:35:35.135Z,4.80
2023-05-04T16:38:02.217Z,5.20
2023-05-04T16:40:32.273Z,4.72
2023-05-04T16:42:59.532Z,4.75
2023-05-04T16:45:31.264Z,5.07
2023-05-04T16:47:59.201Z,5.18
2023-05-04T16:50:26.230Z,4.97
2023-05-04T16:52:53.567Z,5.05
2023-05-04T16:55:21.503Z,5.40
2023-05-04T16:57:49.073Z,5.80
2023-05-04T17:00:16.576Z,5.72
2023-05-04T17:02:44.006Z,5.18
2023-05-04T17:05:11.355Z,5.60
2023-05-04T17:07:43.303Z,4.75
2023-05-04T17:10:11.213Z,4.85
2023-05-04T17:12:38.660Z,5.95
2023-05-04T17:15:06.202Z,5.30
2023-05-04T17:17:33.489Z,5.15
2023-05-04T17:20:00.913Z,5.85
2023-05-04T17:22:27.991Z,5.37
2023-05-04T17:24:55.334Z,6.00
2023-05-04T17:27:22.365Z,6.68
2023-05-04T17:29:49.474Z,6.30
2023-05-04T17:32:16.845Z,5.22
2023-05-04T17:34:43.921Z,6.75
2023-05-04T17:37:10.995Z,6.65
2023-05-04T17:39:38.331Z,6.75
2023-05-04T17:42:05.787Z,6.68
2023-05-04T17:44:32.890Z,5.97
2023-05-04T17:47:00.333Z,5.37
2023-05-04T17:49:27.398Z,5.93
2023-05-04T17:51:56.401Z,5.85
2023-05-04T17:54:23.715Z,5.53
2023-05-04T17:56:50.942Z,5.12
2023-05-04T17:59:18.008Z,5.62
2023-05-04T18:01:45.880Z,5.53
2023-05-04T18:04:16.394Z,5.60
2023-05-04T18:06:43.407Z,5.53
2023-05-04T18:09:10.796Z,5.97
2023-05-04T18:11:38.119Z,6.65
2023-05-04T18:14:05.113Z,6.15
2023-05-04T18:16:36.078Z,6.50
2023-05-04T18:19:03.613Z,5.75
2023-05-04T18:21:30.598Z,5.68
2023-05-04T18:23:57.560Z,5.90
2023-05-04T18:26:24.773Z,6.10
2023-05-04T18:28:51.786Z,6.30
2023-05-04T18:31:19.028Z,6.95
2023-05-04T18:33:46.686Z,6.55
2023-05-04T18:36:13.894Z,7.75
2023-05-04T18:38:41.161Z,8.27
2023-05-04T18:41:08.634Z,7.43
2023-05-04T18:43:35.783Z,7.70
2023-05-04T18:46:07.566Z,7.20
2023-05-04T18:48:35.054Z,6.97
2023-05-04T18:51:02.680Z,6.82
2023-05-04T18:53:29.950Z,8.13
2023-05-04T18:56:08.157Z,7.15
2023-05-04T18:58:39.003Z,7.00
2023-05-04T19:01:06.655Z,6.85
2023-05-04T19:03:34.250Z,7.00
2023-05-04T19:06:01.358Z,7.55
2023-05-04T19:08:28.485Z,8.18
2023-05-04T19:11:00.361Z,8.93
2023-05-04T19:13:27.547Z,7.75
2023-05-04T19:15:54.625Z,7.57
2023-05-04T19:18:22.180Z,8.15
2023-05-04T19:20:49.356Z,7.70
2023-05-04T19:23:16.562Z,7.05
2023-05-04T19:25:45.061Z,7.25
2023-05-04T19:28:12.478Z,7.68
2023-05-04T19:30:40.366Z,8.40
2023-05-04T19:33:10.379Z,7.50
2023-05-04T19:35:37.532Z,7.82
2023-05-04T19:38:06.633Z,8.45
2023-05-04T19:40:34.566Z,7.85
2023-05-04T19:43:01.811Z,8.07
2023-05-04T19:45:28.956Z,7.32
2023-05-04T19:47:56.555Z,8.05
2023-05-04T19:50:23.928Z,7.07
2023-05-04T19:52:51.773Z,7.03
2023-05-04T19:55:19.315Z,7.07
2023-05-04T19:57:47.683Z,7.95
2023-05-04T20:00:17.050Z,8.20
2023-05-04T20:02:44.904Z,7.95
2023-05-04T20:05:12.826Z,7.53
2023-05-04T20:07:39.882Z,7.95
2023-05-04T20:10:08.183Z,6.80
2023-05-04T20:12:35.637Z,8.00
2023-05-04T20:15:03.891Z,7.60
2023-05-04T20:17:31.493Z,8.05
2023-05-04T20:19:58.510Z,7.68
2023-05-04T20:22:25.512Z,7.65
2023-05-04T20:24:52.829Z,7.40
2023-05-04T20:27:19.968Z,7.95
2023-05-04T20:29:47.051Z,8.02
2023-05-04T20:32:14.849Z,7.20
2023-05-04T20:34:43.095Z,7.97
2023-05-04T20:37:10.214Z,7.32
2023-05-04T20:39:37.815Z,8.45
2023-05-04T20:42:05.753Z,8.27
2023-05-04T20:44:33.551Z,8.75
2023-05-04T20:47:00.962Z,8.15
2023-05-04T20:49:28.026Z,7.40
2023-05-04T20:51:55.597Z,7.43
2023-05-04T20:54:22.884Z,8.27
2023-05-04T20:56:50.041Z,8.27
2023-05-04T20:59:17.106Z,8.77
2023-05-04T21:01:44.582Z,7.80
2023-05-04T21:04:11.782Z,7.30
2023-05-04T21:06:38.839Z,8.82
2023-05-04T21:09:06.521Z,8.57
2023-05-04T21:11:33.790Z,7.68
2023-05-04T21:14:00.831Z,7.97
2023-05-04T21:16:28.337Z,8.05
2023-05-04T21:18:55.433Z,7.53
2023-05-04T21:21:22.562Z,8.30
2023-05-04T21:23:50.003Z,7.55
2023-05-04T21:26:17.153Z,6.37
2023-05-04T21:28:44.290Z,6.85
2023-05-04T21:31:11.992Z,6.25
2023-05-04T21:33:39.105Z,6.12
2023-05-04T21:36:15.794Z,6.93
2023-05-04T21:38:43.359Z,6.37
2023-05-04T21:41:14.747Z,6.87
2023-05-04T21:43:43.509Z,6.43
2023-05-04T21:46:12.153Z,6.53
2023-05-04T21:48:39.922Z,6.30
2023-05-04T21:51:07.034Z,6.35
2023-05-04T21:53:34.430Z,7.30
2023-05-04T21:56:05.919Z,6.37
2023-05-04T21:58:33.119Z,6.72
2023-05-04T22:01:00.622Z,7.70
2023-05-04T22:03:28.793Z,6.57
2023-05-04T22:05:57.920Z,6.30
2023-05-04T22:08:25.670Z,7.50
2023-05-04T22:10:54.403Z,6.70
2023-05-04T22:13:22.013Z,7.05
2023-05-04T22:15:50.629Z,8.45
2023-05-04T22:18:18.453Z,6.72
2023-05-04T22:20:46.010Z,6.87
2023-05-04T22:23:14.236Z,8.07
2023-05-04T22:25:41.679Z,8.18
2023-05-04T22:28:08.802Z,8.98
2023-05-04T22:30:36.113Z,9.07
2023-05-04T22:33:03.604Z,8.20
2023-05-04T22:35:33.818Z,7.65
2023-05-04T22:38:00.801Z,7.28
2023-05-04T22:40:28.174Z,7.57
2023-05-04T22:42:55.262Z,7.07
2023-05-04T22:45:22.441Z,6.80
2023-05-04T22:47:49.855Z,6.20
2023-05-04T22:50:17.509Z,6.37
2023-05-04T22:52:44.599Z,7.05
2023-05-04T22:55:12.388Z,6.22
2023-05-04T22:57:39.446Z,6.22
2023-05-04T23:00:07.738Z,7.07
2023-05-04T23:02:36.133Z,6.60
2023-05-04T23:05:03.931Z,6.40
2023-05-04T23:07:31.170Z,6.22
2023-05-04T23:09:59.689Z,6.68
2023-05-04T23:12:27.939Z,4.80
2023-05-04T23:14:55.012Z,4.03
2023-05-04T23:17:22.456Z,4.65
2023-05-04T23:19:49.954Z,4.40
2023-05-04T23:22:17.215Z,4.30
2023-05-04T23:24:44.618Z,3.42
2023-05-04T23:27:11.697Z,3.35
2023-05-04T23:29:38.956Z,3.33
2023-05-04T23:32:06.462Z,2.70
2023-05-04T23:34:33.690Z,2.70
2023-05-04T23:37:01.108Z,3.00
2023-05-04T23:39:28.569Z,2.60
2023-05-04T23:41:55.786Z,2.60
2023-05-04T23:44:23.017Z,3.33
2023-05-04T23:46:50.373Z,2.50
2023-05-04T23:49:17.473Z,3.05
2023-05-04T23:51:44.723Z,2.55
2023-05-04T23:54:12.145Z,3.35
2023-05-04T23:56:39.306Z,3.15
2023-05-04T23:59:06.597Z,2.40
